Time;durP1;ratioP1;P1;durP2;ratioP2;P2;SDS_P1;SDS_P2;PMS_P1;PMS_P2;Temp;Humidity;BMP_temperature;BMP_pressure;BME280_temperature;BME280_humidity;BME280_pressure;Samples;Min_cycle;Max_cycle;Signal;HPM_P1;HPM_P2
2023/03/02 00:00:25;;;;;;;14.85;7.47;;;1.00;99.90;;;;;;5093330;28;20140;-65
2023/03/02 00:02:51;;;;;;;18.23;8.85;;;1.00;99.90;;;;;;5093399;28;20390;-65
2023/03/02 00:05:16;;;;;;;15.43;8.10;;;0.90;99.90;;;;;;5094245;28;20028;-65
2023/03/02 00:07:42;;;;;;;16.45;8.77;;;0.70;99.90;;;;;;5097412;28;20027;-65
2023/03/02 00:10:08;;;;;;;17.00;9.27;;;0.50;99.90;;;;;;5097138;28;20069;-65
2023/03/02 00:12:34;;;;;;;13.85;8.20;;;0.30;99.90;;;;;;5097189;28;20035;-65
2023/03/02 00:15:00;;;;;;;18.20;9.25;;;0.10;99.90;;;;;;5097311;28;20130;-65
2023/03/02 00:17:27;;;;;;;18.70;8.90;;;-0.10;99.90;;;;;;5097266;28;20024;-65
2023/03/02 00:19:54;;;;;;;14.88;8.68;;;-0.30;99.90;;;;;;5097131;28;20504;-65
2023/03/02 00:22:20;;;;;;;18.60;9.48;;;-0.50;99.90;;;;;;5097103;28;20111;-65
2023/03/02 00:24:45;;;;;;;19.50;9.43;;;-0.50;99.90;;;;;;5097093;28;20114;-65
2023/03/02 00:27:11;;;;;;;18.00;9.57;;;-0.60;99.90;;;;;;5096846;28;20077;-65
2023/03/02 00:29:36;;;;;;;18.10;9.50;;;-0.50;99.90;;;;;;5096807;28;20020;-65
2023/03/02 00:32:02;;;;;;;21.83;9.77;;;-0.30;99.90;;;;;;5096808;28;20034;-64
2023/03/02 00:34:31;;;;;;;20.20;9.98;;;-0.40;99.90;;;;;;5096665;28;20036;-65
2023/03/02 00:36:57;;;;;;;22.02;10.25;;;-0.50;99.90;;;;;;5096895;28;20397;-65
2023/03/02 00:39:22;;;;;;;20.98;9.95;;;-0.60;99.90;;;;;;5096839;28;20021;-65
2023/03/02 00:41:48;;;;;;;18.25;10.05;;;-0.60;99.90;;;;;;5096842;28;20032;-64
2023/03/02 00:44:16;;;;;;;21.73;10.00;;;-0.70;99.90;;;;;;5096239;28;20052;-64
2023/03/02 00:46:42;;;;;;;18.50;9.00;;;-0.80;99.90;;;;;;5096447;28;20048;-64
2023/03/02 00:49:07;;;;;;;19.95;9.80;;;-1.00;99.90;;;;;;5096468;28;20054;-64
2023/03/02 00:51:33;;;;;;;17.08;9.50;;;-1.00;99.90;;;;;;5096433;28;20024;-65
2023/03/02 00:54:01;;;;;;;17.80;9.10;;;-1.00;99.90;;;;;;5096565;28;20035;-64
2023/03/02 00:56:27;;;;;;;19.75;10.25;;;-1.10;99.90;;;;;;5096284;28;20028;-65
2023/03/02 00:58:53;;;;;;;20.13;9.50;;;-1.10;99.90;;;;;;5096316;28;20132;-64
2023/03/02 01:01:19;;;;;;;18.98;9.95;;;-1.20;99.90;;;;;;5096463;28;20055;-64
2023/03/02 01:03:44;;;;;;;19.33;9.48;;;-1.30;99.90;;;;;;5096050;28;20500;-64
2023/03/02 01:06:16;;;;;;;17.77;9.52;;;-1.30;99.90;;;;;;5096113;28;20442;-64
2023/03/02 01:08:42;;;;;;;19.48;10.27;;;-1.30;99.90;;;;;;5096051;28;20058;-65
2023/03/02 01:11:17;;;;;;;17.30;9.63;;;-1.30;99.90;;;;;;5096031;28;20063;-64
2023/03/02 01:13:43;;;;;;;19.17;10.65;;;-1.00;99.90;;;;;;5095028;28;20052;-64
2023/03/02 01:16:08;;;;;;;17.15;9.00;;;-0.60;99.90;;;;;;5095284;28;20032;-64
2023/03/02 01:18:37;;;;;;;19.65;9.43;;;-0.40;99.90;;;;;;5095915;28;20119;-64
2023/03/02 01:21:06;;;;;;;15.75;9.25;;;-0.10;99.90;;;;;;5095917;28;20032;-64
2023/03/02 01:23:32;;;;;;;17.95;9.23;;;0.10;99.90;;;;;;5094612;28;20028;-64
2023/03/02 01:25:58;;;;;;;17.75;9.10;;;0.20;99.90;;;;;;5095850;28;20425;-65
2023/03/02 01:28:23;;;;;;;18.25;9.68;;;0.30;99.90;;;;;;5095683;28;20032;-64
2023/03/02 01:30:49;;;;;;;15.48;9.32;;;0.40;99.90;;;;;;5095863;28;20020;-64
2023/03/02 01:33:14;;;;;;;16.75;9.05;;;0.40;99.90;;;;;;5095606;28;20028;-64
2023/03/02 01:35:40;;;;;;;17.30;9.18;;;0.50;99.90;;;;;;5095705;28;20024;-64
2023/03/02 01:38:05;;;;;;;16.00;9.20;;;0.60;99.90;;;;;;5095525;28;20036;-64
2023/03/02 01:40:31;;;;;;;17.17;8.63;;;0.60;99.90;;;;;;5095540;28;20462;-64
2023/03/02 01:43:03;;;;;;;16.85;8.77;;;0.60;99.90;;;;;;5095449;28;20053;-65
2023/03/02 01:45:50;;;;;;;16.58;7.30;;;0.60;99.90;;;;;;5095422;28;20054;-64
2023/03/02 01:48:24;;;;;;;16.60;8.73;;;0.70;99.90;;;;;;5095184;28;20020;-64
2023/03/02 01:50:51;;;;;;;17.88;8.63;;;0.60;99.90;;;;;;5094395;28;20496;-64
2023/03/02 01:53:17;;;;;;;16.65;8.20;;;0.70;99.90;;;;;;5095142;28;20024;-64
2023/03/02 01:55:44;;;;;;;18.33;9.55;;;0.60;99.90;;;;;;5095167;28;20531;-64
2023/03/02 01:58:12;;;;;;;15.55;8.75;;;0.60;99.90;;;;;;5095339;28;20077;-64
2023/03/02 02:00:38;;;;;;;18.30;8.80;;;0.60;99.90;;;;;;5093887;28;20482;-64
2023/03/02 02:03:11;;;;;;;18.42;9.02;;;0.70;99.90;;;;;;5095272;28;20027;-64
2023/03/02 02:05:39;;;;;;;12.55;7.05;;;0.70;99.90;;;;;;5095014;28;20426;-64
2023/03/02 02:08:05;;;;;;;16.08;8.50;;;0.70;99.90;;;;;;5093745;28;20063;-64
2023/03/02 02:10:33;;;;;;;18.58;9.48;;;0.70;99.90;;;;;;5094944;28;20394;-65
2023/03/02 02:12:58;;;;;;;18.35;9.35;;;0.70;99.90;;;;;;5093790;28;20477;-65
2023/03/02 02:15:24;;;;;;;17.63;9.40;;;0.60;99.90;;;;;;5094853;28;20153;-64
2023/03/02 02:17:53;;;;;;;17.08;8.07;;;0.60;99.90;;;;;;5094646;28;20032;-64
2023/03/02 02:20:38;;;;;;;14.05;7.88;;;0.70;99.90;;;;;;5093759;28;20032;-64
2023/03/02 02:23:27;;;;;;;15.88;7.95;;;0.60;99.90;;;;;;5094608;28;20366;-64
2023/03/02 02:26:17;;;;;;;14.93;8.45;;;0.60;99.90;;;;;;5094518;28;20024;-64
2023/03/02 02:29:02;;;;;;;13.00;8.13;;;0.60;99.90;;;;;;5093609;28;20511;-64
2023/03/02 02:31:39;;;;;;;18.20;8.93;;;0.50;99.90;;;;;;5094495;28;20020;-64
2023/03/02 02:34:12;;;;;;;15.55;9.13;;;0.40;99.90;;;;;;5094437;28;20082;-64
2023/03/02 02:36:45;;;;;;;14.35;7.90;;;0.30;99.90;;;;;;5093244;28;20082;-64
2023/03/02 02:39:19;;;;;;;15.77;7.97;;;0.40;99.90;;;;;;5094343;28;20027;-64
2023/03/02 02:41:46;;;;;;;17.42;8.45;;;0.50;99.90;;;;;;5094260;28;20119;-64
2023/03/02 02:44:14;;;;;;;18.27;9.13;;;0.40;99.90;;;;;;5094092;28;20528;-64
2023/03/02 02:46:40;;;;;;;17.23;8.40;;;0.40;99.90;;;;;;5094183;28;20111;-64
2023/03/02 02:49:24;;;;;;;17.75;8.90;;;0.40;99.90;;;;;;5094203;28;20055;-64
2023/03/02 02:51:50;;;;;;;16.90;8.50;;;0.40;99.90;;;;;;5094074;28;20498;-64
2023/03/02 02:54:18;;;;;;;17.73;8.57;;;0.40;99.90;;;;;;5094031;28;20119;-64
2023/03/02 02:56:45;;;;;;;20.10;9.10;;;0.50;99.90;;;;;;5094032;28;20031;-64
2023/03/02 02:59:21;;;;;;;19.58;8.05;;;0.60;99.90;;;;;;5093954;28;20028;-64
2023/03/02 03:01:48;;;;;;;12.98;7.45;;;0.60;99.90;;;;;;5092725;28;20161;-64
2023/03/02 03:04:19;;;;;;;16.92;8.35;;;0.70;99.90;;;;;;5093800;28;20108;-64
2023/03/02 03:06:54;;;;;;;16.00;7.53;;;0.70;99.90;;;;;;5092684;28;20024;-64
2023/03/02 03:09:20;;;;;;;15.77;7.88;;;0.70;99.90;;;;;;5094050;28;20028;-64
2023/03/02 03:11:50;;;;;;;17.60;8.05;;;0.80;99.90;;;;;;5092577;28;20069;-64
2023/03/02 03:14:18;;;;;;;14.52;8.20;;;0.80;99.90;;;;;;5092537;28;20115;-64
2023/03/02 03:16:46;;;;;;;13.88;7.65;;;0.70;99.90;;;;;;5093895;28;20028;-64
2023/03/02 03:19:26;;;;;;;13.90;7.82;;;0.60;99.90;;;;;;5093889;28;20081;-64
2023/03/02 03:21:56;;;;;;;15.90;8.32;;;0.60;99.90;;;;;;5093877;28;20411;-64
2023/03/02 03:24:23;;;;;;;18.23;8.20;;;0.70;99.90;;;;;;5093795;28;20502;-64
2023/03/02 03:26:49;;;;;;;14.90;7.50;;;0.70;99.90;;;;;;5092326;28;20020;-67
2023/03/02 03:29:16;;;;;;;15.57;7.43;;;0.70;99.90;;;;;;5093775;28;20085;-64
2023/03/02 03:31:42;;;;;;;15.13;7.43;;;0.70;99.90;;;;;;5093454;28;20027;-64
2023/03/02 03:34:08;;;;;;;13.57;7.00;;;0.70;99.90;;;;;;5093935;28;20421;-64
2023/03/02 03:36:35;;;;;;;13.40;7.25;;;0.70;99.90;;;;;;5092467;28;20035;-66
2023/03/02 03:39:02;;;;;;;14.13;8.27;;;0.70;99.90;;;;;;5092065;28;20024;-64
2023/03/02 03:41:28;;;;;;;16.42;7.78;;;0.70;99.90;;;;;;5093715;28;20039;-65
2023/03/02 03:43:54;;;;;;;18.95;7.22;;;0.70;99.90;;;;;;5093178;28;20056;-64
2023/03/02 03:46:20;;;;;;;15.20;8.07;;;0.70;99.90;;;;;;5092362;28;20020;-64
2023/03/02 03:48:45;;;;;;;16.77;8.02;;;0.60;99.90;;;;;;5093286;28;20077;-64
2023/03/02 03:51:11;;;;;;;20.17;7.93;;;0.60;99.90;;;;;;5093287;28;20606;-64
2023/03/02 03:53:36;;;;;;;15.90;7.05;;;0.60;99.90;;;;;;5093314;28;20024;-64
2023/03/02 03:56:03;;;;;;;17.25;7.63;;;0.60;99.90;;;;;;5092077;28;20497;-64
2023/03/02 03:58:30;;;;;;;15.30;7.70;;;0.60;99.90;;;;;;5092116;28;20035;-64
2023/03/02 04:00:56;;;;;;;15.02;8.05;;;0.60;99.90;;;;;;5093220;28;20028;-68
2023/03/02 04:03:24;;;;;;;15.77;8.10;;;0.50;99.90;;;;;;5092277;28;20107;-64
2023/03/02 04:05:50;;;;;;;17.65;8.48;;;0.50;99.90;;;;;;5092873;28;20432;-64
2023/03/02 04:08:16;;;;;;;15.77;7.35;;;0.50;99.90;;;;;;5093317;28;20031;-64
2023/03/02 04:10:42;;;;;;;20.92;9.20;;;0.40;99.90;;;;;;5091639;28;20020;-64
2023/03/02 04:13:07;;;;;;;17.33;8.48;;;0.40;99.90;;;;;;5093118;28;20031;-64
2023/03/02 04:15:33;;;;;;;17.95;8.55;;;0.30;99.90;;;;;;5092065;28;20028;-64
2023/03/02 04:17:59;;;;;;;17.60;8.10;;;0.30;99.90;;;;;;5092721;28;20399;-65
2023/03/02 04:20:25;;;;;;;16.35;7.63;;;0.30;99.90;;;;;;5093075;28;20103;-64
2023/03/02 04:22:52;;;;;;;17.45;8.80;;;0.20;99.90;;;;;;5093181;28;20032;-64
2023/03/02 04:25:21;;;;;;;17.20;8.40;;;0.10;99.90;;;;;;5091661;28;20036;-64
2023/03/02 04:27:48;;;;;;;19.70;8.48;;;0.00;99.90;;;;;;5092864;28;20051;-64
2023/03/02 04:30:17;;;;;;;18.73;8.85;;;0.00;99.90;;;;;;5093152;28;20025;-64
2023/03/02 04:32:42;;;;;;;16.30;8.45;;;-0.10;99.90;;;;;;5091724;28;20048;-64
2023/03/02 04:35:09;;;;;;;16.65;8.88;;;0.00;99.90;;;;;;5093071;28;20514;-64
2023/03/02 04:37:35;;;;;;;17.25;8.60;;;0.00;99.90;;;;;;5091932;28;20028;-64
2023/03/02 04:40:01;;;;;;;16.33;8.43;;;0.00;99.90;;;;;;5093192;28;20038;-64
2023/03/02 04:42:26;;;;;;;16.17;8.45;;;0.00;99.90;;;;;;5092835;28;20032;-64
2023/03/02 04:44:52;;;;;;;20.02;9.43;;;-0.10;99.90;;;;;;5092532;28;20522;-64
2023/03/02 04:47:17;;;;;;;16.55;8.57;;;-0.20;99.90;;;;;;5092740;28;20089;-64
2023/03/02 04:49:43;;;;;;;19.45;9.45;;;-0.10;99.90;;;;;;5092763;28;20517;-64
2023/03/02 04:52:08;;;;;;;14.65;8.93;;;-0.10;99.90;;;;;;5095349;28;20028;-64
2023/03/02 04:54:34;;;;;;;18.40;8.93;;;-0.10;99.90;;;;;;5096389;28;20032;-64
2023/03/02 04:57:00;;;;;;;15.73;8.38;;;-0.10;99.90;;;;;;5096337;28;20066;-64
2023/03/02 04:59:27;;;;;;;15.38;9.18;;;-0.20;99.90;;;;;;5096441;28;20128;-64
2023/03/02 05:01:54;;;;;;;18.23;9.57;;;-0.30;99.90;;;;;;5096418;28;20111;-64
2023/03/02 05:04:20;;;;;;;19.80;9.30;;;-0.40;99.90;;;;;;5094926;28;20028;-64
2023/03/02 05:06:46;;;;;;;19.08;8.57;;;-0.40;99.90;;;;;;5096117;28;20024;-65
2023/03/02 05:09:12;;;;;;;17.45;7.95;;;-0.50;99.90;;;;;;5095117;28;20113;-64
2023/03/02 05:11:38;;;;;;;19.98;9.27;;;-0.40;99.90;;;;;;5094999;28;20043;-64
2023/03/02 05:14:06;;;;;;;18.85;9.15;;;-0.40;99.90;;;;;;5094846;28;20024;-65
2023/03/02 05:16:34;;;;;;;20.20;9.40;;;-0.40;99.90;;;;;;5096134;28;20426;-64
2023/03/02 05:19:02;;;;;;;17.48;8.90;;;-0.50;99.90;;;;;;5096001;28;20050;-65
2023/03/02 05:21:28;;;;;;;18.13;9.00;;;-0.50;99.90;;;;;;5094993;28;20478;-65
2023/03/02 05:23:53;;;;;;;22.42;9.45;;;-0.70;99.90;;;;;;5095847;28;20035;-64
2023/03/02 05:26:19;;;;;;;16.88;9.10;;;-0.80;99.90;;;;;;5095682;28;20039;-65
2023/03/02 05:28:45;;;;;;;19.98;9.85;;;-0.70;99.90;;;;;;5095694;28;20059;-64
2023/03/02 05:31:18;;;;;;;22.73;9.60;;;-0.80;99.90;;;;;;5094728;28;20482;-64
2023/03/02 05:33:44;;;;;;;18.02;9.15;;;-0.60;99.90;;;;;;5095556;28;20043;-64
2023/03/02 05:36:09;;;;;;;19.90;9.43;;;-0.70;99.90;;;;;;5095727;28;20393;-64
2023/03/02 05:38:35;;;;;;;17.17;9.30;;;-0.60;99.90;;;;;;5095600;28;20103;-64
2023/03/02 05:41:01;;;;;;;20.67;9.57;;;-0.50;99.90;;;;;;5095532;28;20093;-64
2023/03/02 05:43:27;;;;;;;17.65;8.93;;;-0.60;99.90;;;;;;5094158;28;20455;-64
2023/03/02 05:45:59;;;;;;;17.15;8.77;;;-0.50;99.90;;;;;;5095345;28;20035;-64
2023/03/02 05:48:26;;;;;;;14.68;8.45;;;-0.40;99.90;;;;;;5095456;28;20020;-64
2023/03/02 05:50:51;;;;;;;14.55;9.00;;;-0.30;99.90;;;;;;5095533;28;20517;-64
2023/03/02 05:53:17;;;;;;;18.77;9.32;;;-0.30;99.90;;;;;;5095173;28;20056;-64
2023/03/02 05:55:42;;;;;;;19.15;9.13;;;-0.30;99.90;;;;;;5095405;28;20360;-64
2023/03/02 05:58:15;;;;;;;18.80;9.25;;;-0.30;99.90;;;;;;5095154;28;20099;-64
2023/03/02 06:00:40;;;;;;;20.70;6.95;;;-0.30;99.90;;;;;;5094200;28;20024;-64
2023/03/02 06:03:06;;;;;;;17.90;9.68;;;-0.20;99.90;;;;;;5095283;28;20026;-64
2023/03/02 06:05:32;;;;;;;19.25;9.25;;;-0.20;99.90;;;;;;5094995;28;20416;-64
2023/03/02 06:07:57;;;;;;;19.73;9.70;;;-0.20;99.90;;;;;;5094955;28;20024;-64
2023/03/02 06:10:23;;;;;;;18.63;10.15;;;-0.30;99.90;;;;;;5094885;28;20031;-64
2023/03/02 06:12:49;;;;;;;21.77;9.93;;;-0.30;99.90;;;;;;5094791;28;20024;-64
2023/03/02 06:15:15;;;;;;;20.30;10.05;;;-0.30;99.90;;;;;;5094874;28;20030;-64
2023/03/02 06:17:41;;;;;;;21.38;9.63;;;-0.30;99.90;;;;;;5094759;28;20111;-64
2023/03/02 06:20:09;;;;;;;15.38;9.45;;;-0.30;99.90;;;;;;5093391;28;20452;-64
2023/03/02 06:22:44;;;;;;;19.83;9.55;;;-0.30;99.90;;;;;;5094825;28;20059;-64
2023/03/02 06:25:12;;;;;;;22.27;9.88;;;-0.20;99.90;;;;;;5094549;28;20055;-64
2023/03/02 06:27:38;;;;;;;16.70;8.90;;;-0.20;99.90;;;;;;5094756;28;20028;-65
2023/03/02 06:30:06;;;;;;;17.58;9.68;;;-0.10;99.90;;;;;;5094701;28;20024;-64
2023/03/02 06:32:33;;;;;;;21.20;9.85;;;0.00;99.90;;;;;;5093533;28;20027;-64
2023/03/02 06:35:01;;;;;;;16.08;9.05;;;0.00;99.90;;;;;;5094567;28;20043;-64
2023/03/02 06:37:27;;;;;;;19.52;10.20;;;0.20;99.90;;;;;;5093249;28;20081;-64
2023/03/02 06:39:54;;;;;;;21.45;10.73;;;0.50;99.90;;;;;;5094168;28;20020;-64
2023/03/02 06:42:20;;;;;;;19.35;10.57;;;0.40;99.90;;;;;;5094113;28;20031;-64
2023/03/02 06:44:45;;;;;;;20.75;10.50;;;0.50;99.90;;;;;;5093941;28;20173;-64
2023/03/02 06:47:11;;;;;;;19.83;10.00;;;0.50;99.90;;;;;;5094268;28;20032;-64
2023/03/02 06:49:36;;;;;;;19.63;8.77;;;0.60;99.90;;;;;;5094158;28;20485;-64
2023/03/02 06:52:06;;;;;;;23.63;10.02;;;0.80;99.90;;;;;;5094175;28;20366;-64
2023/03/02 06:54:32;;;;;;;21.20;9.48;;;1.00;99.90;;;;;;5094166;28;20103;-64
2023/03/02 06:56:57;;;;;;;18.50;10.15;;;1.10;99.90;;;;;;5094086;28;20028;-64
2023/03/02 06:59:23;;;;;;;19.45;9.35;;;1.10;99.90;;;;;;5093985;28;20464;-64
2023/03/02 07:01:50;;;;;;;22.77;10.10;;;1.10;99.90;;;;;;5093880;28;20028;-64
2023/03/02 07:04:16;;;;;;;16.42;9.82;;;1.20;99.90;;;;;;5093735;28;20070;-65
2023/03/02 07:06:41;;;;;;;18.15;9.80;;;1.40;99.90;;;;;;5093834;28;20024;-64
2023/03/02 07:09:07;;;;;;;20.42;9.77;;;1.90;99.90;;;;;;5093809;28;20040;-64
2023/03/02 07:11:32;;;;;;;17.92;9.85;;;2.20;99.90;;;;;;5093676;28;20024;-64
2023/03/02 07:14:00;;;;;;;22.77;10.35;;;2.60;99.90;;;;;;5091931;28;20032;-65
2023/03/02 07:16:26;;;;;;;16.52;9.38;;;2.80;99.90;;;;;;5093411;28;20482;-65
2023/03/02 07:18:51;;;;;;;19.38;9.85;;;3.00;99.90;;;;;;5092936;28;20039;-64
2023/03/02 07:21:17;;;;;;;18.15;9.70;;;3.20;99.90;;;;;;5093729;28;20023;-65
2023/03/02 07:23:42;;;;;;;14.70;8.95;;;3.20;99.90;;;;;;5093527;28;20111;-64
2023/03/02 07:26:08;;;;;;;15.93;9.80;;;3.30;99.90;;;;;;5093526;28;20024;-64
2023/03/02 07:28:38;;;;;;;20.30;9.80;;;3.70;99.90;;;;;;5092386;28;20020;-65
2023/03/02 07:31:05;;;;;;;18.40;9.77;;;3.60;99.90;;;;;;5093142;28;20024;-65
2023/03/02 07:33:31;;;;;;;18.13;9.65;;;4.00;99.90;;;;;;5092286;28;20028;-65
2023/03/02 07:35:56;;;;;;;15.85;9.32;;;4.10;99.90;;;;;;5093583;28;20148;-65
2023/03/02 07:38:22;;;;;;;16.27;9.82;;;4.30;99.90;;;;;;5092009;28;20032;-65
2023/03/02 07:40:48;;;;;;;18.25;9.25;;;5.10;99.90;;;;;;5092909;28;20036;-65
2023/03/02 07:43:14;;;;;;;21.05;9.30;;;4.80;99.90;;;;;;5093152;28;20032;-65
2023/03/02 07:45:39;;;;;;;18.33;9.25;;;4.40;99.90;;;;;;5092725;28;20452;-65
2023/03/02 07:48:05;;;;;;;17.52;10.82;;;4.00;99.90;;;;;;5094501;28;20052;-65
2023/03/02 07:50:32;;;;;;;18.35;10.15;;;4.30;99.90;;;;;;5091112;28;20081;-66
2023/03/02 07:52:57;;;;;;;15.48;9.27;;;4.50;99.90;;;;;;5093038;28;20054;-65
2023/03/02 07:55:23;;;;;;;17.70;9.75;;;5.90;99.90;;;;;;5092698;28;20024;-70
2023/03/02 07:57:48;;;;;;;23.20;10.10;;;5.70;99.90;;;;;;5093111;28;20039;-65
2023/03/02 08:00:15;;;;;;;16.15;10.55;;;7.10;99.90;;;;;;5092388;28;20032;-65
2023/03/02 08:02:41;;;;;;;17.23;9.50;;;7.80;99.90;;;;;;5093074;28;20024;-65
2023/03/02 08:05:08;;;;;;;17.13;9.60;;;7.20;99.90;;;;;;5092865;28;20148;-65
2023/03/02 08:07:33;;;;;;;16.92;9.07;;;6.70;99.90;;;;;;5091918;28;20024;-65
2023/03/02 08:09:59;;;;;;;18.52;9.60;;;6.30;99.90;;;;;;5092656;28;20433;-65
2023/03/02 08:12:26;;;;;;;16.40;10.27;;;6.70;99.90;;;;;;5092958;28;20485;-65
2023/03/02 08:14:51;;;;;;;15.98;10.15;;;7.80;99.90;;;;;;5092683;28;20474;-65
2023/03/02 08:17:17;;;;;;;17.33;9.50;;;7.80;99.90;;;;;;5092967;28;20031;-65
2023/03/02 08:19:43;;;;;;;14.15;8.80;;;7.20;99.90;;;;;;5092623;28;20028;-65
2023/03/02 08:22:09;;;;;;;15.52;8.98;;;7.00;99.90;;;;;;5092893;28;20032;-65
2023/03/02 08:24:34;;;;;;;18.10;9.10;;;7.50;99.90;;;;;;5091375;28;20036;-65
2023/03/02 08:27:01;;;;;;;14.20;9.27;;;7.90;99.90;;;;;;5095214;28;20389;-65
2023/03/02 08:29:27;;;;;;;14.90;9.18;;;8.70;99.90;;;;;;5096902;28;20052;-65
2023/03/02 08:31:52;;;;;;;17.00;9.25;;;8.30;99.90;;;;;;5096128;28;20429;-65
2023/03/02 08:34:18;;;;;;;16.63;8.98;;;8.00;99.90;;;;;;5097005;28;20020;-65
2023/03/02 08:36:43;;;;;;;13.18;9.15;;;7.70;99.90;;;;;;5096486;28;20032;-65
2023/03/02 08:39:09;;;;;;;14.93;9.35;;;7.30;99.90;;;;;;5096596;28;20112;-65
2023/03/02 08:41:35;;;;;;;16.08;9.00;;;6.60;99.90;;;;;;5096513;28;20032;-65
2023/03/02 08:44:01;;;;;;;15.25;8.70;;;7.80;99.90;;;;;;5096280;28;20378;-65
2023/03/02 08:46:27;;;;;;;15.00;8.75;;;8.90;99.90;;;;;;5096062;28;20417;-65
2023/03/02 08:48:52;;;;;;;14.57;8.18;;;8.90;99.90;;;;;;5096054;28;20032;-65
2023/03/02 08:51:21;;;;;;;17.52;8.95;;;7.50;99.90;;;;;;5095872;28;20043;-65
2023/03/02 08:53:49;;;;;;;15.43;8.93;;;7.20;99.90;;;;;;5096284;28;20035;-64
2023/03/02 08:56:18;;;;;;;14.20;8.60;;;7.50;99.90;;;;;;5094642;28;20081;-65
2023/03/02 08:58:44;;;;;;;13.85;8.77;;;7.70;99.90;;;;;;5094931;28;20024;-65
2023/03/02 09:01:15;;;;;;;15.35;9.05;;;7.50;99.90;;;;;;5095480;28;20358;-65
2023/03/02 09:03:41;;;;;;;16.73;9.18;;;7.70;99.90;;;;;;5095783;28;20035;-65
2023/03/02 09:06:06;;;;;;;15.30;9.27;;;8.30;99.90;;;;;;5094880;28;20024;-65
2023/03/02 09:08:32;;;;;;;18.13;10.10;;;8.40;99.90;;;;;;5096066;28;20386;-65
2023/03/02 09:10:57;;;;;;;17.35;9.43;;;8.90;99.90;;;;;;5095782;28;20024;-65
2023/03/02 09:13:23;;;;;;;17.50;9.65;;;8.70;99.90;;;;;;5096162;28;20031;-65
2023/03/02 09:15:48;;;;;;;14.38;8.40;;;8.60;99.90;;;;;;5095506;28;20028;-65
2023/03/02 09:18:14;;;;;;;14.05;8.80;;;8.00;99.90;;;;;;5095798;28;20057;-65
2023/03/02 09:20:39;;;;;;;15.63;9.38;;;8.60;99.90;;;;;;5095635;28;20032;-65
2023/03/02 09:23:05;;;;;;;14.32;8.88;;;9.00;99.90;;;;;;5095945;28;20031;-65
2023/03/02 09:25:30;;;;;;;12.63;8.25;;;8.90;99.90;;;;;;5095449;28;20397;-66
2023/03/02 09:27:56;;;;;;;14.57;8.73;;;9.80;99.90;;;;;;5095825;28;20031;-65
2023/03/02 09:30:22;;;;;;;12.23;8.63;;;9.90;99.90;;;;;;5095025;28;20663;-65
2023/03/02 09:32:47;;;;;;;16.30;8.43;;;9.30;99.90;;;;;;5095593;28;20409;-65
2023/03/02 09:35:13;;;;;;;13.35;7.78;;;9.80;99.90;;;;;;5095410;28;20508;-65
2023/03/02 09:37:39;;;;;;;14.27;8.50;;;9.80;99.00;;;;;;5095149;28;20050;-65
2023/03/02 09:40:18;;;;;;;10.32;7.45;;;9.30;99.50;;;;;;5095155;28;20432;-65
2023/03/02 09:43:03;;;;;;;15.85;7.80;;;9.80;99.90;;;;;;5075078;28;20056;-65
2023/03/02 09:45:45;;;;;;;11.50;7.32;;;10.40;98.30;;;;;;5083273;28;20122;-65
2023/03/02 09:48:21;;;;;;;13.43;8.00;;;10.20;97.60;;;;;;5095366;28;20028;-65
2023/03/02 09:51:01;;;;;;;12.43;8.13;;;10.40;97.70;;;;;;5095014;28;20031;-66
2023/03/02 09:53:35;;;;;;;13.40;7.88;;;11.10;96.00;;;;;;5092167;28;20024;-66
2023/03/02 09:56:02;;;;;;;12.63;7.35;;;9.90;96.10;;;;;;5094024;28;20099;-65
2023/03/02 09:58:34;;;;;;;11.48;7.63;;;10.00;96.90;;;;;;5095036;28;20031;-65
2023/03/02 10:01:05;;;;;;;11.98;7.43;;;9.80;97.20;;;;;;5094662;28;20028;-66
2023/03/02 10:03:43;;;;;;;13.02;6.90;;;10.70;96.70;;;;;;5092860;28;20031;-68
2023/03/02 10:06:09;;;;;;;9.90;6.03;;;11.50;94.50;;;;;;5088581;28;20528;-66
2023/03/02 10:08:36;;;;;;;9.98;6.60;;;12.00;91.50;;;;;;5094720;28;20032;-66
2023/03/02 10:11:30;;;;;;;13.43;6.22;;;11.80;90.80;;;;;;5094746;28;20043;-65
2023/03/02 10:14:04;;;;;;;9.27;6.32;;;11.30;91.10;;;;;;5094720;28;20063;-65
2023/03/02 10:16:37;;;;;;;10.43;6.78;;;11.70;90.00;;;;;;5093375;28;20054;-65
2023/03/02 10:19:28;;;;;;;11.25;5.97;;;11.80;89.30;;;;;;5093866;28;20425;-65
2023/03/02 10:22:28;;;;;;;9.48;6.35;;;12.00;89.30;;;;;;5094276;28;20524;-66
2023/03/02 10:25:21;;;;;;;10.75;6.32;;;12.20;90.00;;;;;;5094085;28;20370;-66
2023/03/02 10:27:53;;;;;;;9.50;6.22;;;12.70;85.30;;;;;;5094236;28;20398;-66
2023/03/02 10:30:26;;;;;;;9.63;5.97;;;11.60;84.80;;;;;;5092937;28;20038;-66
2023/03/02 10:32:54;;;;;;;9.63;6.07;;;11.40;87.20;;;;;;5094596;28;20385;-65
2023/03/02 10:35:23;;;;;;;11.73;6.22;;;12.00;87.10;;;;;;5093671;28;20111;-66
2023/03/02 10:37:54;;;;;;;10.57;6.18;;;12.20;89.40;;;;;;5094157;28;20119;-66
2023/03/02 10:40:45;;;;;;;9.55;6.45;;;11.80;87.20;;;;;;5093653;28;20035;-65
2023/03/02 10:43:20;;;;;;;8.75;5.43;;;10.70;89.90;;;;;;5092492;28;20115;-66
2023/03/02 10:45:58;;;;;;;10.18;6.03;;;9.90;90.00;;;;;;5093973;28;20028;-65
2023/03/02 10:48:23;;;;;;;9.93;6.00;;;10.20;91.20;;;;;;5092068;28;20111;-65
2023/03/02 10:50:53;;;;;;;10.85;6.25;;;10.60;90.50;;;;;;5093785;28;20051;-64
2023/03/02 10:53:18;;;;;;;10.23;6.32;;;10.30;90.60;;;;;;5093989;28;20051;-64
2023/03/02 10:55:46;;;;;;;8.18;5.20;;;10.80;91.00;;;;;;5093360;28;20414;-64
2023/03/02 10:58:32;;;;;;;9.50;6.15;;;10.40;90.70;;;;;;5093919;28;20102;-64
2023/03/02 11:01:01;;;;;;;7.03;5.50;;;11.20;91.10;;;;;;5093622;28;20103;-64
2023/03/02 11:03:28;;;;;;;11.05;6.55;;;11.50;89.20;;;;;;5093576;28;20028;-64
2023/03/02 11:05:54;;;;;;;12.02;6.50;;;11.20;90.80;;;;;;5092338;28;20040;-64
2023/03/02 11:08:22;;;;;;;11.07;6.95;;;11.30;91.20;;;;;;5093646;28;20458;-64
2023/03/02 11:10:54;;;;;;;13.60;7.43;;;11.40;91.00;;;;;;5092236;28;20081;-64
2023/03/02 11:13:37;;;;;;;8.50;5.97;;;11.70;91.60;;;;;;5075777;28;20028;-64
2023/03/02 11:16:24;;;;;;;8.82;6.22;;;11.50;89.70;;;;;;5090263;28;20043;-65
2023/03/02 11:19:01;;;;;;;9.75;6.10;;;10.90;91.00;;;;;;5092242;28;20028;-64
2023/03/02 11:21:52;;;;;;;7.65;5.50;;;11.50;91.00;;;;;;5092342;28;20028;-65
2023/03/02 11:24:32;;;;;;;10.48;5.97;;;11.30;90.70;;;;;;5093272;28;20032;-64
2023/03/02 11:27:19;;;;;;;8.73;6.15;;;10.80;90.90;;;;;;5093287;28;20030;-64
2023/03/02 11:29:49;;;;;;;10.23;6.07;;;10.80;91.50;;;;;;5093597;28;20055;-64
2023/03/02 11:32:36;;;;;;;11.77;5.32;;;11.00;92.00;;;;;;5092412;28;20016;-66
2023/03/02 11:35:08;;;;;;;11.00;6.18;;;10.70;91.80;;;;;;5091675;28;20032;-64
2023/03/02 11:37:54;;;;;;;9.52;5.50;;;10.80;91.70;;;;;;5091549;28;20077;-65
2023/03/02 11:40:35;;;;;;;10.90;6.05;;;10.30;92.20;;;;;;5093274;28;20486;-64
2023/03/02 11:43:05;;;;;;;15.13;8.50;;;10.40;94.10;;;;;;5092967;28;20119;-64
2023/03/02 11:45:35;;;;;;;10.50;7.60;;;10.70;94.30;;;;;;5092777;28;20416;-64
2023/03/02 11:48:11;;;;;;;12.43;6.75;;;10.40;94.10;;;;;;5092720;28;20038;-64
2023/03/02 11:51:01;;;;;;;10.82;6.15;;;9.90;94.00;;;;;;5092980;28;20448;-65
2023/03/02 11:53:39;;;;;;;11.00;6.82;;;10.00;93.60;;;;;;5092213;28;20028;-64
2023/03/02 11:56:05;;;;;;;10.52;7.38;;;9.90;95.10;;;;;;5091726;28;20056;-65
2023/03/02 11:58:32;;;;;;;13.63;7.30;;;9.70;95.30;;;;;;5092975;28;20031;-64
2023/03/02 12:01:00;;;;;;;13.85;7.80;;;9.80;95.80;;;;;;5094776;28;20032;-64
2023/03/02 12:08:54;;;;;;;12.35;7.28;;;9.50;96.60;;;;;;5110639;27;20400;-63
2023/03/02 12:11:25;;;;;;;11.05;7.38;;;9.40;97.10;;;;;;5100820;28;20029;-64
2023/03/02 12:13:58;;;;;;;13.13;8.40;;;9.70;96.90;;;;;;5090792;28;20482;-63
2023/03/02 12:16:44;;;;;;;17.33;8.70;;;9.60;96.80;;;;;;5099867;28;20028;-63
2023/03/02 12:21:59;;;;;;;13.52;8.48;;;9.60;97.40;;;;;;5110766;27;20446;-63
2023/03/02 12:24:28;;;;;;;14.00;8.07;;;9.50;97.30;;;;;;5110756;28;20543;-63
2023/03/02 12:30:23;;;;;;;13.65;8.68;;;9.60;97.70;;;;;;5111077;27;20299;-64
2023/03/02 12:35:55;;;;;;;10.50;7.15;;;9.50;98.40;;;;;;5110622;27;20343;-64
2023/03/02 12:38:28;;;;;;;13.02;7.15;;;9.70;97.70;;;;;;5096425;28;20414;-64
2023/03/02 12:44:11;;;;;;;12.52;8.70;;;9.60;97.80;;;;;;5111041;27;20380;-63
2023/03/02 12:46:39;;;;;;;12.40;7.97;;;9.90;98.70;;;;;;5110563;28;20504;-63
2023/03/02 12:49:28;;;;;;;14.02;8.10;;;9.80;98.30;;;;;;5110619;28;20466;-63
2023/03/02 12:51:56;;;;;;;14.43;8.40;;;9.70;98.50;;;;;;5110581;28;20024;-63
2023/03/02 12:54:24;;;;;;;16.83;9.93;;;9.70;98.70;;;;;;5110760;28;20028;-64
2023/03/02 12:57:05;;;;;;;15.88;9.25;;;9.70;99.10;;;;;;5109673;28;20097;-64
2023/03/02 12:59:31;;;;;;;16.10;8.57;;;9.70;98.80;;;;;;5110951;28;20050;-64
2023/03/02 13:02:18;;;;;;;14.82;7.28;;;9.80;98.80;;;;;;5110374;28;20036;-64
2023/03/02 13:04:50;;;;;;;13.10;7.35;;;9.90;97.50;;;;;;5110496;28;20028;-64
2023/03/02 13:07:20;;;;;;;11.57;6.93;;;9.80;97.10;;;;;;5109742;28;20028;-64
2023/03/02 13:09:49;;;;;;;11.02;7.47;;;9.80;98.10;;;;;;5110543;28;20019;-64